createdAt,value
2023-03-02T00:02:28.609Z,89.63
2023-03-02T00:07:34.783Z,88.76
2023-03-02T00:12:36.840Z,89.49
2023-03-02T00:17:48.044Z,89.50
2023-03-02T00:22:50.234Z,88.66
2023-03-02T00:27:52.640Z,89.25
2023-03-02T00:32:55.708Z,89.92
2023-03-02T00:37:58.742Z,89.88
2023-03-02T00:43:00.965Z,90.10
2023-03-02T00:48:04.493Z,90.76
2023-03-02T00:53:07.043Z,90.62
2023-03-02T00:58:09.210Z,90.81
2023-03-02T01:03:12.672Z,91.71
2023-03-02T01:08:15.378Z,90.62
2023-03-02T01:13:17.477Z,92.71
2023-03-02T01:18:20.965Z,91.40
2023-03-02T01:23:23.045Z,92.68
2023-03-02T01:28:25.256Z,91.42
2023-03-02T01:33:28.345Z,91.30
2023-03-02T01:38:30.582Z,91.91
2023-03-02T01:43:32.923Z,91.54
2023-03-02T01:48:42.788Z,92.11
2023-03-02T01:53:46.430Z,92.52
2023-03-02T01:58:51.375Z,92.64
2023-03-02T02:03:55.424Z,93.12
2023-03-02T02:08:59.502Z,93.85
2023-03-02T02:14:04.110Z,92.76
2023-03-02T02:19:15.904Z,93.98
2023-03-02T02:24:25.235Z,92.89
2023-03-02T02:29:32.724Z,93.44
2023-03-02T02:34:41.028Z,93.32
2023-03-02T02:39:46.879Z,93.52
2023-03-02T02:44:57.334Z,93.84
2023-03-02T02:49:59.364Z,94.20
2023-03-02T02:55:02.452Z,94.12
2023-03-02T03:00:07.818Z,93.80
2023-03-02T03:05:14.462Z,94.72
2023-03-02T03:10:23.220Z,95.74
2023-03-02T03:15:27.171Z,95.03
2023-03-02T03:20:29.669Z,94.67
2023-03-02T03:25:31.515Z,94.84
2023-03-02T03:30:35.288Z,95.29
2023-03-02T03:35:37.201Z,95.52
2023-03-02T03:40:39.326Z,95.61
2023-03-02T03:45:42.949Z,95.55
2023-03-02T03:50:45.222Z,95.78
2023-03-02T03:55:47.404Z,95.90
2023-03-02T04:00:50.561Z,95.99
2023-03-02T04:05:55.903Z,96.06
2023-03-02T04:10:58.205Z,96.41
2023-03-02T04:16:01.946Z,95.79
2023-03-02T04:21:04.594Z,95.98
2023-03-02T04:26:06.759Z,96.24
2023-03-02T04:31:10.366Z,95.76
2023-03-02T04:36:12.814Z,96.60
2023-03-02T04:41:17.311Z,96.22
2023-03-02T04:46:23.106Z,96.05
2023-03-02T04:51:27.685Z,96.39
2023-03-02T04:56:30.624Z,96.78
2023-03-02T05:01:34.344Z,96.45
2023-03-02T05:06:36.297Z,96.62
2023-03-02T05:11:38.946Z,96.62
2023-03-02T05:16:42.835Z,96.91
2023-03-02T05:21:45.603Z,95.95
2023-03-02T05:26:47.639Z,95.79
2023-03-02T05:31:51.769Z,95.95
2023-03-02T05:36:53.714Z,96.51
2023-03-02T05:41:55.875Z,95.98
2023-03-02T05:47:02.245Z,95.42
2023-03-02T05:52:04.445Z,95.45
2023-03-02T05:57:06.562Z,96.40
2023-03-02T06:02:10.090Z,95.68
2023-03-02T06:07:12.832Z,95.66
2023-03-02T06:12:15.350Z,97.37
2023-03-02T06:17:18.943Z,97.06
2023-03-02T06:22:21.129Z,97.13
2023-03-02T06:27:23.249Z,96.14
2023-03-02T06:32:29.409Z,96.08
2023-03-02T06:37:32.379Z,96.03
2023-03-02T06:42:34.788Z,96.30
2023-03-02T06:47:38.488Z,96.17
2023-03-02T06:52:40.941Z,96.32
2023-03-02T06:57:43.158Z,96.11
2023-03-02T07:02:49.141Z,95.89
2023-03-02T07:07:58.731Z,96.04
2023-03-02T07:13:02.060Z,95.53
2023-03-02T07:18:05.409Z,96.08
2023-03-02T07:23:07.582Z,97.29
2023-03-02T07:28:09.708Z,98.14
2023-03-02T07:33:13.232Z,98.78
2023-03-02T07:38:15.518Z,97.63
2023-03-02T07:43:17.860Z,97.24
2023-03-02T07:48:21.070Z,96.31
2023-03-02T07:53:23.229Z,95.92
2023-03-02T07:58:25.082Z,95.39
2023-03-02T08:03:31.018Z,94.42
2023-03-02T08:08:32.776Z,93.22
2023-03-02T08:13:35.281Z,93.06
2023-03-02T08:18:39.086Z,92.32
2023-03-02T08:23:41.838Z,91.35
2023-03-02T08:28:45.961Z,90.47
2023-03-02T08:33:49.271Z,89.59
2023-03-02T08:38:51.958Z,88.45
2023-03-02T08:43:54.221Z,87.73
2023-03-02T08:48:57.784Z,87.98
2023-03-02T08:54:01.453Z,88.29
2023-03-02T08:59:08.119Z,88.37
2023-03-02T09:04:11.414Z,87.81
2023-03-02T09:09:14.857Z,87.07
2023-03-02T09:14:16.920Z,86.17
2023-03-02T09:19:20.678Z,86.27
2023-03-02T09:24:22.741Z,84.84
2023-03-02T09:29:24.807Z,83.48
2023-03-02T09:34:28.095Z,83.22
2023-03-02T09:39:29.882Z,82.06
2023-03-02T09:44:45.510Z,80.25
2023-03-02T09:49:57.966Z,80.17
2023-03-02T09:55:11.675Z,78.39
2023-03-02T10:00:19.813Z,77.95
2023-03-02T10:05:27.161Z,77.08
2023-03-02T10:10:37.412Z,75.64
2023-03-02T10:15:46.799Z,59.53
2023-03-02T10:20:54.373Z,53.60
2023-03-02T10:26:11.155Z,47.80
2023-03-02T10:31:23.451Z,44.34
2023-03-02T10:36:28.373Z,44.67
2023-03-02T10:41:35.614Z,42.46
2023-03-02T10:46:42.385Z,46.37
2023-03-02T10:51:54.392Z,45.66
2023-03-02T10:56:59.836Z,46.20
2023-03-02T11:02:03.707Z,42.51
2023-03-02T11:07:17.019Z,42.49
2023-03-02T11:12:19.303Z,42.42
2023-03-02T11:17:31.614Z,43.75
2023-03-02T11:22:40.618Z,41.99
2023-03-02T11:27:44.428Z,45.01
2023-03-02T11:32:54.232Z,49.62
2023-03-02T11:38:10.105Z,57.78
2023-03-02T11:43:12.767Z,62.14
2023-03-02T11:48:22.151Z,64.88
2023-03-02T11:53:33.163Z,67.17
2023-03-02T11:58:36.758Z,67.08
2023-03-02T12:03:40.901Z,66.89
2023-03-02T12:08:46.629Z,66.12
2023-03-02T12:14:00.386Z,65.49
2023-03-02T12:19:24.155Z,65.46
2023-03-02T12:24:29.720Z,64.90
2023-03-02T12:29:39.618Z,66.35
2023-03-02T12:34:45.415Z,65.91
2023-03-02T12:40:17.498Z,65.48
2023-03-02T12:45:32.150Z,66.90
2023-03-02T12:50:38.448Z,64.23
2023-03-02T12:55:41.681Z,65.73
2023-03-02T13:00:52.152Z,64.52
2023-03-02T13:06:01.344Z,64.02
2023-03-02T13:11:08.012Z,63.35
2023-03-02T13:16:20.705Z,65.02
2023-03-02T13:21:30.543Z,65.93
2023-03-02T13:26:36.001Z,65.67
2023-03-02T13:31:38.697Z,65.74
2023-03-02T13:36:41.864Z,66.83
2023-03-02T13:41:54.232Z,67.48
2023-03-02T13:46:56.693Z,66.84
2023-03-02T13:52:03.292Z,67.73
2023-03-02T13:57:07.299Z,67.99
2023-03-02T14:02:22.809Z,68.40
2023-03-02T14:07:24.803Z,67.21
2023-03-02T14:12:31.197Z,68.45
2023-03-02T14:17:33.572Z,67.57
2023-03-02T14:22:35.742Z,68.13
2023-03-02T14:27:40.134Z,67.94
2023-03-02T14:32:42.021Z,68.75
2023-03-02T14:37:48.577Z,69.59
2023-03-02T14:42:52.080Z,69.20
2023-03-02T14:47:54.125Z,70.40
2023-03-02T14:52:58.446Z,72.30
2023-03-02T14:58:05.114Z,73.12
2023-03-02T15:03:07.087Z,74.03
2023-03-02T15:08:12.816Z,75.31
2023-03-02T15:13:16.540Z,75.63
2023-03-02T15:18:18.668Z,77.11
2023-03-02T15:23:30.228Z,77.99
2023-03-02T15:28:33.331Z,78.56
2023-03-02T15:33:35.634Z,80.41
2023-03-02T15:38:37.404Z,81.62
2023-03-02T15:43:40.875Z,82.80
2023-03-02T15:48:45.607Z,83.41
2023-03-02T15:53:56.275Z,83.57
2023-03-02T15:58:59.626Z,84.72
2023-03-02T16:04:01.872Z,85.10
2023-03-02T16:09:04.809Z,85.96
2023-03-02T16:14:08.875Z,86.85
2023-03-02T16:19:12.560Z,87.52
2023-03-02T16:24:15.710Z,89.03
2023-03-02T16:29:23.200Z,89.79
2023-03-02T16:34:25.262Z,90.83
2023-03-02T16:39:34.473Z,91.15
2023-03-02T16:44:49.319Z,92.74
2023-03-02T16:49:55.104Z,93.63
2023-03-02T16:54:57.216Z,94.21
2023-03-02T17:00:01.053Z,94.80
2023-03-02T17:05:03.306Z,95.14
2023-03-02T17:10:06.599Z,96.08
2023-03-02T17:15:13.411Z,97.16
2023-03-02T17:20:17.610Z,96.86
2023-03-02T17:25:20.137Z,96.85
2023-03-02T17:30:23.807Z,96.90
2023-03-02T17:35:26.470Z,97.04
2023-03-02T17:40:31.532Z,97.42
2023-03-02T17:45:37.188Z,97.15
2023-03-02T17:50:39.425Z,97.13
2023-03-02T17:55:41.205Z,97.25
2023-03-02T18:00:44.732Z,97.50
2023-03-02T18:05:49.181Z,97.73
2023-03-02T18:10:51.140Z,97.92
2023-03-02T18:15:54.308Z,97.80
2023-03-02T18:20:59.595Z,98.10
2023-03-02T18:26:01.946Z,98.51
2023-03-02T18:31:07.029Z,97.59
2023-03-02T18:36:09.598Z,98.37
2023-03-02T18:41:13.074Z,99.19
2023-03-02T18:46:22.698Z,98.91
2023-03-02T18:51:25.396Z,99.44
2023-03-02T18:56:27.514Z,99.01
2023-03-02T19:01:32.119Z,99.33
2023-03-02T19:06:34.225Z,99.33
2023-03-02T19:11:36.344Z,99.58
2023-03-02T19:16:39.523Z,100.00
2023-03-02T19:21:42.437Z,100.00
2023-03-02T19:26:47.665Z,100.00
2023-03-02T19:31:50.822Z,100.00
2023-03-02T19:36:53.033Z,100.00
2023-03-02T19:41:54.962Z,100.00
2023-03-02T19:46:58.760Z,100.00
2023-03-02T19:52:00.509Z,100.00
2023-03-02T19:57:03.087Z,100.00
2023-03-02T20:02:06.437Z,100.00
2023-03-02T20:07:08.573Z,100.00
2023-03-02T20:12:10.355Z,100.00
2023-03-02T20:17:13.893Z,100.00
2023-03-02T20:22:17.459Z,100.00
2023-03-02T20:27:20.321Z,100.00
2023-03-02T20:32:23.644Z,100.00
2023-03-02T20:37:26.401Z,100.00
2023-03-02T20:42:29.324Z,100.00
2023-03-02T20:47:32.754Z,100.00
2023-03-02T20:52:34.783Z,100.00
2023-03-02T20:57:36.654Z,100.00
2023-03-02T21:02:40.237Z,100.00
2023-03-02T21:07:42.714Z,100.00
2023-03-02T21:12:45.278Z,100.00
2023-03-02T21:17:48.805Z,100.00
2023-03-02T21:22:50.627Z,100.00
2023-03-02T21:27:53.053Z,100.00
2023-03-02T21:32:56.751Z,100.00
2023-03-02T21:37:59.881Z,100.00
2023-03-02T21:43:02.825Z,100.00
2023-03-02T21:48:07.368Z,100.00
2023-03-02T21:53:09.642Z,100.00
2023-03-02T21:58:12.284Z,100.00
2023-03-02T22:03:15.452Z,100.00
2023-03-02T22:08:19.600Z,100.00
2023-03-02T22:13:23.634Z,100.00
2023-03-02T22:18:28.012Z,100.00
2023-03-02T22:23:31.695Z,100.00
2023-03-02T22:28:34.262Z,100.00
2023-03-02T22:33:37.850Z,100.00
2023-03-02T22:38:40.020Z,100.00
2023-03-02T22:43:42.962Z,100.00
2023-03-02T22:48:48.527Z,100.00
2023-03-02T22:53:52.761Z,100.00
2023-03-02T22:58:55.711Z,100.00
2023-03-02T23:04:12.455Z,100.00
2023-03-02T23:09:17.117Z,100.00
2023-03-02T23:14:25.617Z,100.00
2023-03-02T23:19:31.129Z,100.00
2023-03-02T23:24:32.896Z,100.00
2023-03-02T23:29:35.360Z,100.00
2023-03-02T23:34:39.093Z,100.00
2023-03-02T23:39:41.104Z,100.00
2023-03-02T23:44:43.327Z,100.00
2023-03-02T23:49:46.909Z,100.00
2023-03-02T23:54:52.224Z,100.00
2023-03-02T23:59:54.387Z,100.00
